sensor_id;sensor_type;location;lat;lon;timestamp;temperature;humidity
37410;DHT22;23275;48.914;12.566;2024-03-08T00:01:48;0.80;99.90
37410;DHT22;23275;48.914;12.566;2024-03-08T00:04:14;0.70;99.90
37410;DHT22;23275;48.914;12.566;2024-03-08T00:06:41;0.70;99.90
37410;DHT22;23275;48.914;12.566;2024-03-08T00:09:07;0.60;99.90
37410;DHT22;23275;48.914;12.566;2024-03-08T00:11:34;0.50;99.90
37410;DHT22;23275;48.914;12.566;2024-03-08T00:14:00;0.50;99.90
37410;DHT22;23275;48.914;12.566;2024-03-08T00:16:26;0.40;99.90
37410;DHT22;23275;48.914;12.566;2024-03-08T00:18:51;0.40;99.90
37410;DHT22;23275;48.914;12.566;2024-03-08T00:21:17;0.50;99.90
37410;DHT22;23275;48.914;12.566;2024-03-08T00:23:42;0.50;99.90
37410;DHT22;23275;48.914;12.566;2024-03-08T00:26:08;0.50;99.90
37410;DHT22;23275;48.914;12.566;2024-03-08T00:28:34;0.60;99.90
37410;DHT22;23275;48.914;12.566;2024-03-08T00:31:00;0.60;99.90
37410;DHT22;23275;48.914;12.566;2024-03-08T00:33:26;0.60;99.90
37410;DHT22;23275;48.914;12.566;2024-03-08T00:35:53;0.60;99.90
37410;DHT22;23275;48.914;12.566;2024-03-08T00:38:19;0.60;99.90
37410;DHT22;23275;48.914;12.566;2024-03-08T00:40:45;0.50;99.90
37410;DHT22;23275;48.914;12.566;2024-03-08T00:43:10;0.60;99.90
37410;DHT22;23275;48.914;12.566;2024-03-08T00:45:36;0.60;99.90
37410;DHT22;23275;48.914;12.566;2024-03-08T00:48:03;0.50;99.90
37410;DHT22;23275;48.914;12.566;2024-03-08T00:50:29;0.50;99.90
37410;DHT22;23275;48.914;12.566;2024-03-08T00:52:54;0.50;99.90
37410;DHT22;23275;48.914;12.566;2024-03-08T00:55:20;0.50;99.90
37410;DHT22;23275;48.914;12.566;2024-03-08T00:57:45;0.50;99.90
37410;DHT22;23275;48.914;12.566;2024-03-08T01:00:12;0.40;99.90
37410;DHT22;23275;48.914;12.566;2024-03-08T01:02:39;0.50;99.90
37410;DHT22;23275;48.914;12.566;2024-03-08T01:05:05;0.40;99.90
37410;DHT22;23275;48.914;12.566;2024-03-08T01:07:34;0.40;99.90
37410;DHT22;23275;48.914;12.566;2024-03-08T01:10:02;0.40;99.90
37410;DHT22;23275;48.914;12.566;2024-03-08T01:12:28;0.40;99.90
37410;DHT22;23275;48.914;12.566;2024-03-08T01:14:53;0.50;99.90
37410;DHT22;23275;48.914;12.566;2024-03-08T01:17:19;0.50;99.90
37410;DHT22;23275;48.914;12.566;2024-03-08T01:19:44;0.50;99.90
37410;DHT22;23275;48.914;12.566;2024-03-08T01:22:10;0.50;99.90
37410;DHT22;23275;48.914;12.566;2024-03-08T01:24:36;0.50;99.90
37410;DHT22;23275;48.914;12.566;2024-03-08T01:27:03;0.50;99.90
37410;DHT22;23275;48.914;12.566;2024-03-08T01:29:28;0.50;99.90
37410;DHT22;23275;48.914;12.566;2024-03-08T01:31:57;0.50;99.90
37410;DHT22;23275;48.914;12.566;2024-03-08T01:34:25;0.40;99.90
37410;DHT22;23275;48.914;12.566;2024-03-08T01:36:51;0.40;99.90
37410;DHT22;23275;48.914;12.566;2024-03-08T01:39:16;0.40;99.90
37410;DHT22;23275;48.914;12.566;2024-03-08T01:41:42;0.40;99.90
37410;DHT22;23275;48.914;12.566;2024-03-08T01:44:08;0.40;99.90
37410;DHT22;23275;48.914;12.566;2024-03-08T01:46:34;0.40;99.90
37410;DHT22;23275;48.914;12.566;2024-03-08T01:49:01;0.40;99.90
37410;DHT22;23275;48.914;12.566;2024-03-08T01:51:28;0.40;99.90
37410;DHT22;23275;48.914;12.566;2024-03-08T01:53:55;0.40;99.90
37410;DHT22;23275;48.914;12.566;2024-03-08T01:56:23;0.40;99.90
37410;DHT22;23275;48.914;12.566;2024-03-08T01:58:50;0.40;99.90
37410;DHT22;23275;48.914;12.566;2024-03-08T02:01:16;0.40;99.90
37410;DHT22;23275;48.914;12.566;2024-03-08T02:03:42;0.40;99.90
37410;DHT22;23275;48.914;12.566;2024-03-08T02:06:11;0.40;99.90
37410;DHT22;23275;48.914;12.566;2024-03-08T02:08:37;0.30;99.90
37410;DHT22;23275;48.914;12.566;2024-03-08T02:11:04;0.40;99.90
37410;DHT22;23275;48.914;12.566;2024-03-08T02:13:30;0.40;99.90
37410;DHT22;23275;48.914;12.566;2024-03-08T02:16:00;0.40;99.90
37410;DHT22;23275;48.914;12.566;2024-03-08T02:18:28;0.30;99.90
37410;DHT22;23275;48.914;12.566;2024-03-08T02:20:55;0.30;99.90
37410;DHT22;23275;48.914;12.566;2024-03-08T02:23:21;0.30;99.90
37410;DHT22;23275;48.914;12.566;2024-03-08T02:25:48;0.30;99.90
37410;DHT22;23275;48.914;12.566;2024-03-08T02:28:14;0.30;99.90
37410;DHT22;23275;48.914;12.566;2024-03-08T02:30:40;0.30;99.90
37410;DHT22;23275;48.914;12.566;2024-03-08T02:33:06;0.30;99.90
37410;DHT22;23275;48.914;12.566;2024-03-08T02:35:33;0.30;99.90
37410;DHT22;23275;48.914;12.566;2024-03-08T02:37:59;0.20;99.90
37410;DHT22;23275;48.914;12.566;2024-03-08T02:40:25;0.20;99.90
37410;DHT22;23275;48.914;12.566;2024-03-08T02:42:50;0.20;99.90
37410;DHT22;23275;48.914;12.566;2024-03-08T02:45:16;0.20;99.90
37410;DHT22;23275;48.914;12.566;2024-03-08T02:47:41;0.10;99.90
37410;DHT22;23275;48.914;12.566;2024-03-08T02:50:07;0.10;99.90
37410;DHT22;23275;48.914;12.566;2024-03-08T02:52:34;0.10;99.90
37410;DHT22;23275;48.914;12.566;2024-03-08T02:55:01;0.10;99.90
37410;DHT22;23275;48.914;12.566;2024-03-08T02:57:26;0.10;99.90
37410;DHT22;23275;48.914;12.566;2024-03-08T02:59:53;0.10;99.90
37410;DHT22;23275;48.914;12.566;2024-03-08T03:02:19;0.10;99.90
37410;DHT22;23275;48.914;12.566;2024-03-08T03:04:45;0.10;99.90
37410;DHT22;23275;48.914;12.566;2024-03-08T03:07:11;0.10;99.90
37410;DHT22;23275;48.914;12.566;2024-03-08T03:09:36;0.10;99.90
37410;DHT22;23275;48.914;12.566;2024-03-08T03:12:02;0.10;99.90
37410;DHT22;23275;48.914;12.566;2024-03-08T03:14:29;0.10;99.90
37410;DHT22;23275;48.914;12.566;2024-03-08T03:16:54;0.10;99.90
37410;DHT22;23275;48.914;12.566;2024-03-08T03:19:20;0.10;99.90
37410;DHT22;23275;48.914;12.566;2024-03-08T03:21:46;0.10;99.90
37410;DHT22;23275;48.914;12.566;2024-03-08T03:24:12;0.10;99.90
37410;DHT22;23275;48.914;12.566;2024-03-08T03:26:41;0.10;99.90
37410;DHT22;23275;48.914;12.566;2024-03-08T03:29:08;0.10;99.90
37410;DHT22;23275;48.914;12.566;2024-03-08T03:31:36;0.10;99.90
37410;DHT22;23275;48.914;12.566;2024-03-08T03:34:02;0.10;99.90
37410;DHT22;23275;48.914;12.566;2024-03-08T03:36:29;0.10;99.90
37410;DHT22;23275;48.914;12.566;2024-03-08T03:38:55;0.00;99.90
37410;DHT22;23275;48.914;12.566;2024-03-08T03:41:31;0.00;99.90
37410;DHT22;23275;48.914;12.566;2024-03-08T03:43:56;0.00;99.90
37410;DHT22;23275;48.914;12.566;2024-03-08T03:46:22;0.00;99.90
37410;DHT22;23275;48.914;12.566;2024-03-08T03:48:48;0.00;99.90
37410;DHT22;23275;48.914;12.566;2024-03-08T03:51:13;0.00;99.90
37410;DHT22;23275;48.914;12.566;2024-03-08T03:53:40;0.00;99.90
37410;DHT22;23275;48.914;12.566;2024-03-08T03:56:07;0.00;99.90
37410;DHT22;23275;48.914;12.566;2024-03-08T03:58:33;0.00;99.90
37410;DHT22;23275;48.914;12.566;2024-03-08T04:00:58;0.00;99.90
37410;DHT22;23275;48.914;12.566;2024-03-08T04:03:24;0.00;99.90
37410;DHT22;23275;48.914;12.566;2024-03-08T04:05:49;0.00;99.90
37410;DHT22;23275;48.914;12.566;2024-03-08T04:08:16;0.00;99.90
37410;DHT22;23275;48.914;12.566;2024-03-08T04:10:42;0.00;99.90
37410;DHT22;23275;48.914;12.566;2024-03-08T04:13:08;0.00;99.90
37410;DHT22;23275;48.914;12.566;2024-03-08T04:15:35;0.00;99.90
37410;DHT22;23275;48.914;12.566;2024-03-08T04:18:00;0.10;99.90
37410;DHT22;23275;48.914;12.566;2024-03-08T04:20:26;0.00;99.90
37410;DHT22;23275;48.914;12.566;2024-03-08T04:22:51;0.10;99.90
37410;DHT22;23275;48.914;12.566;2024-03-08T04:25:17;0.10;99.90
37410;DHT22;23275;48.914;12.566;2024-03-08T04:27:43;0.10;99.90
37410;DHT22;23275;48.914;12.566;2024-03-08T04:30:10;0.10;99.90
37410;DHT22;23275;48.914;12.566;2024-03-08T04:32:35;0.10;99.90
37410;DHT22;23275;48.914;12.566;2024-03-08T04:35:01;0.00;99.90
37410;DHT22;23275;48.914;12.566;2024-03-08T04:37:27;0.10;99.90
37410;DHT22;23275;48.914;12.566;2024-03-08T04:39:55;0.00;99.90
37410;DHT22;23275;48.914;12.566;2024-03-08T04:42:20;0.00;99.90
37410;DHT22;23275;48.914;12.566;2024-03-08T04:44:46;0.10;99.90
37410;DHT22;23275;48.914;12.566;2024-03-08T04:47:12;0.10;99.90
37410;DHT22;23275;48.914;12.566;2024-03-08T04:49:38;0.00;99.90
37410;DHT22;23275;48.914;12.566;2024-03-08T04:52:04;0.10;99.90
37410;DHT22;23275;48.914;12.566;2024-03-08T04:54:30;0.10;99.90
37410;DHT22;23275;48.914;12.566;2024-03-08T04:56:56;0.10;99.90
37410;DHT22;23275;48.914;12.566;2024-03-08T04:59:22;0.00;99.90
37410;DHT22;23275;48.914;12.566;2024-03-08T05:01:47;-0.10;99.90
37410;DHT22;23275;48.914;12.566;2024-03-08T05:04:13;-0.10;99.90
37410;DHT22;23275;48.914;12.566;2024-03-08T05:06:39;-0.20;99.90
37410;DHT22;23275;48.914;12.566;2024-03-08T05:09:04;-0.30;99.90
37410;DHT22;23275;48.914;12.566;2024-03-08T05:11:42;-0.30;99.90
37410;DHT22;23275;48.914;12.566;2024-03-08T05:14:09;-0.30;99.90
37410;DHT22;23275;48.914;12.566;2024-03-08T05:16:35;-0.30;99.90
37410;DHT22;23275;48.914;12.566;2024-03-08T05:19:01;-0.30;99.90
37410;DHT22;23275;48.914;12.566;2024-03-08T05:21:27;-0.20;99.90
37410;DHT22;23275;48.914;12.566;2024-03-08T05:23:54;-0.20;99.90
37410;DHT22;23275;48.914;12.566;2024-03-08T05:26:20;-0.20;99.90
37410;DHT22;23275;48.914;12.566;2024-03-08T05:28:45;-0.10;99.90
37410;DHT22;23275;48.914;12.566;2024-03-08T05:31:20;-0.20;99.90
37410;DHT22;23275;48.914;12.566;2024-03-08T05:33:49;-0.20;99.90
37410;DHT22;23275;48.914;12.566;2024-03-08T05:36:15;-0.20;99.90
37410;DHT22;23275;48.914;12.566;2024-03-08T05:38:43;-0.20;99.90
37410;DHT22;23275;48.914;12.566;2024-03-08T05:41:09;-0.20;99.90
37410;DHT22;23275;48.914;12.566;2024-03-08T05:43:35;-0.20;99.90
37410;DHT22;23275;48.914;12.566;2024-03-08T05:46:00;-0.20;99.90
37410;DHT22;23275;48.914;12.566;2024-03-08T05:48:26;-0.20;99.90
37410;DHT22;23275;48.914;12.566;2024-03-08T05:50:51;-0.10;99.90
37410;DHT22;23275;48.914;12.566;2024-03-08T05:53:17;0.00;99.90
37410;DHT22;23275;48.914;12.566;2024-03-08T05:55:45;0.10;99.90
37410;DHT22;23275;48.914;12.566;2024-03-08T05:58:11;0.20;99.90
37410;DHT22;23275;48.914;12.566;2024-03-08T06:00:40;0.40;99.90
37410;DHT22;23275;48.914;12.566;2024-03-08T06:03:05;0.60;99.90
37410;DHT22;23275;48.914;12.566;2024-03-08T06:05:31;0.80;99.90
37410;DHT22;23275;48.914;12.566;2024-03-08T06:07:56;1.10;99.90
37410;DHT22;23275;48.914;12.566;2024-03-08T06:10:22;1.30;99.90
37410;DHT22;23275;48.914;12.566;2024-03-08T06:12:48;1.30;99.90
37410;DHT22;23275;48.914;12.566;2024-03-08T06:15:13;1.30;99.90
37410;DHT22;23275;48.914;12.566;2024-03-08T06:17:42;1.40;99.90
37410;DHT22;23275;48.914;12.566;2024-03-08T06:20:08;1.40;99.90
37410;DHT22;23275;48.914;12.566;2024-03-08T06:22:38;2.10;99.90
37410;DHT22;23275;48.914;12.566;2024-03-08T06:25:08;2.70;99.90
37410;DHT22;23275;48.914;12.566;2024-03-08T06:27:33;3.10;99.90
37410;DHT22;23275;48.914;12.566;2024-03-08T06:30:00;4.10;99.90
37410;DHT22;23275;48.914;12.566;2024-03-08T06:32:25;4.70;99.90
37410;DHT22;23275;48.914;12.566;2024-03-08T06:34:51;5.20;99.90
37410;DHT22;23275;48.914;12.566;2024-03-08T06:37:17;5.00;99.90
37410;DHT22;23275;48.914;12.566;2024-03-08T06:39:48;5.40;99.90
37410;DHT22;23275;48.914;12.566;2024-03-08T06:42:13;5.90;99.90
37410;DHT22;23275;48.914;12.566;2024-03-08T06:44:39;6.50;99.90
37410;DHT22;23275;48.914;12.566;2024-03-08T06:47:14;6.50;99.90
37410;DHT22;23275;48.914;12.566;2024-03-08T06:49:41;6.40;99.90
37410;DHT22;23275;48.914;12.566;2024-03-08T06:52:06;6.10;99.90
37410;DHT22;23275;48.914;12.566;2024-03-08T06:54:34;6.00;99.90
37410;DHT22;23275;48.914;12.566;2024-03-08T06:57:04;5.80;99.90
37410;DHT22;23275;48.914;12.566;2024-03-08T06:59:36;5.60;99.90
37410;DHT22;23275;48.914;12.566;2024-03-08T07:02:02;5.60;99.90
37410;DHT22;23275;48.914;12.566;2024-03-08T07:04:29;6.30;99.90
37410;DHT22;23275;48.914;12.566;2024-03-08T07:06:58;6.70;99.90
37410;DHT22;23275;48.914;12.566;2024-03-08T07:09:27;6.80;99.90
37410;DHT22;23275;48.914;12.566;2024-03-08T07:11:52;7.00;99.90
37410;DHT22;23275;48.914;12.566;2024-03-08T07:14:22;6.90;99.90
37410;DHT22;23275;48.914;12.566;2024-03-08T07:16:48;7.60;99.90
37410;DHT22;23275;48.914;12.566;2024-03-08T07:19:14;8.30;99.90
37410;DHT22;23275;48.914;12.566;2024-03-08T07:21:40;10.20;99.90
37410;DHT22;23275;48.914;12.566;2024-03-08T07:24:07;11.50;99.90
37410;DHT22;23275;48.914;12.566;2024-03-08T07:26:45;11.80;99.90
37410;DHT22;23275;48.914;12.566;2024-03-08T07:29:15;13.20;99.90
37410;DHT22;23275;48.914;12.566;2024-03-08T07:31:41;14.60;95.90
37410;DHT22;23275;48.914;12.566;2024-03-08T07:34:06;14.50;93.40
37410;DHT22;23275;48.914;12.566;2024-03-08T07:36:36;13.30;93.90
37410;DHT22;23275;48.914;12.566;2024-03-08T07:39:01;12.10;95.40
37410;DHT22;23275;48.914;12.566;2024-03-08T07:41:27;11.90;95.20
37410;DHT22;23275;48.914;12.566;2024-03-08T07:43:54;12.30;96.60
37410;DHT22;23275;48.914;12.566;2024-03-08T07:46:19;13.80;92.70
37410;DHT22;23275;48.914;12.566;2024-03-08T07:48:45;15.80;89.80
37410;DHT22;23275;48.914;12.566;2024-03-08T07:51:11;16.90;81.40
37410;DHT22;23275;48.914;12.566;2024-03-08T07:53:38;16.40;83.30
37410;DHT22;23275;48.914;12.566;2024-03-08T07:56:04;16.20;81.30
37410;DHT22;23275;48.914;12.566;2024-03-08T07:58:30;15.20;85.00
37410;DHT22;23275;48.914;12.566;2024-03-08T08:00:56;14.50;83.80
37410;DHT22;23275;48.914;12.566;2024-03-08T08:03:21;13.70;86.80
37410;DHT22;23275;48.914;12.566;2024-03-08T08:05:48;12.70;89.90
37410;DHT22;23275;48.914;12.566;2024-03-08T08:08:14;12.20;90.20
37410;DHT22;23275;48.914;12.566;2024-03-08T08:10:40;13.00;90.30
37410;DHT22;23275;48.914;12.566;2024-03-08T08:13:06;13.20;90.10
37410;DHT22;23275;48.914;12.566;2024-03-08T08:15:31;13.50;89.00
37410;DHT22;23275;48.914;12.566;2024-03-08T08:17:59;13.90;89.30
37410;DHT22;23275;48.914;12.566;2024-03-08T08:20:25;15.10;82.90
37410;DHT22;23275;48.914;12.566;2024-03-08T08:22:51;16.20;82.70
37410;DHT22;23275;48.914;12.566;2024-03-08T08:25:17;17.60;78.40
37410;DHT22;23275;48.914;12.566;2024-03-08T08:27:46;17.50;76.80
37410;DHT22;23275;48.914;12.566;2024-03-08T08:30:12;17.40;79.70
37410;DHT22;23275;48.914;12.566;2024-03-08T08:32:39;17.80;77.10
37410;DHT22;23275;48.914;12.566;2024-03-08T08:35:08;17.90;78.30
37410;DHT22;23275;48.914;12.566;2024-03-08T08:37:34;19.00;75.40
37410;DHT22;23275;48.914;12.566;2024-03-08T08:40:02;19.40;69.50
37410;DHT22;23275;48.914;12.566;2024-03-08T08:42:34;19.20;71.20
37410;DHT22;23275;48.914;12.566;2024-03-08T08:44:59;19.40;68.80
37410;DHT22;23275;48.914;12.566;2024-03-08T08:47:25;19.90;68.30
37410;DHT22;23275;48.914;12.566;2024-03-08T08:49:50;20.50;66.10
37410;DHT22;23275;48.914;12.566;2024-03-08T08:52:16;21.90;61.30
37410;DHT22;23275;48.914;12.566;2024-03-08T08:54:42;24.90;56.80
37410;DHT22;23275;48.914;12.566;2024-03-08T08:57:08;26.40;52.00
37410;DHT22;23275;48.914;12.566;2024-03-08T08:59:34;27.40;48.60
37410;DHT22;23275;48.914;12.566;2024-03-08T09:02:05;28.80;46.60
37410;DHT22;23275;48.914;12.566;2024-03-08T09:04:31;29.20;43.40
37410;DHT22;23275;48.914;12.566;2024-03-08T09:06:57;29.80;41.10
37410;DHT22;23275;48.914;12.566;2024-03-08T09:09:22;29.60;41.10
37410;DHT22;23275;48.914;12.566;2024-03-08T09:11:48;29.90;38.70
37410;DHT22;23275;48.914;12.566;2024-03-08T09:14:15;30.70;39.70
37410;DHT22;23275;48.914;12.566;2024-03-08T09:16:41;32.10;38.20
37410;DHT22;23275;48.914;12.566;2024-03-08T09:19:06;32.30;38.00
37410;DHT22;23275;48.914;12.566;2024-03-08T09:21:33;30.80;38.20
37410;DHT22;23275;48.914;12.566;2024-03-08T09:24:00;29.70;37.90
37410;DHT22;23275;48.914;12.566;2024-03-08T09:26:26;30.50;37.60
37410;DHT22;23275;48.914;12.566;2024-03-08T09:28:52;28.90;39.90
37410;DHT22;23275;48.914;12.566;2024-03-08T09:31:17;29.70;39.90
37410;DHT22;23275;48.914;12.566;2024-03-08T09:33:43;29.10;40.40
37410;DHT22;23275;48.914;12.566;2024-03-08T09:36:09;27.90;39.70
37410;DHT22;23275;48.914;12.566;2024-03-08T09:38:34;26.80;43.40
37410;DHT22;23275;48.914;12.566;2024-03-08T09:41:00;24.80;45.00
37410;DHT22;23275;48.914;12.566;2024-03-08T09:43:28;23.20;45.80
37410;DHT22;23275;48.914;12.566;2024-03-08T09:45:53;25.20;46.00
37410;DHT22;23275;48.914;12.566;2024-03-08T09:48:21;26.70;43.40
37410;DHT22;23275;48.914;12.566;2024-03-08T09:50:47;27.20;41.30
37410;DHT22;23275;48.914;12.566;2024-03-08T09:53:13;28.10;40.60
37410;DHT22;23275;48.914;12.566;2024-03-08T09:55:39;26.60;42.70
37410;DHT22;23275;48.914;12.566;2024-03-08T09:58:11;26.10;43.90
37410;DHT22;23275;48.914;12.566;2024-03-08T10:00:43;25.30;44.70
37410;DHT22;23275;48.914;12.566;2024-03-08T10:03:09;26.90;44.30
37410;DHT22;23275;48.914;12.566;2024-03-08T10:05:36;24.20;46.70
37410;DHT22;23275;48.914;12.566;2024-03-08T10:08:02;24.60;46.80
37410;DHT22;23275;48.914;12.566;2024-03-08T10:10:27;25.30;46.40
37410;DHT22;23275;48.914;12.566;2024-03-08T10:12:53;26.30;44.30
37410;DHT22;23275;48.914;12.566;2024-03-08T10:15:19;26.70;43.20
37410;DHT22;23275;48.914;12.566;2024-03-08T10:17:45;24.90;45.30
37410;DHT22;23275;48.914;12.566;2024-03-08T10:20:18;24.70;44.00
37410;DHT22;23275;48.914;12.566;2024-03-08T10:22:44;24.00;45.20
37410;DHT22;23275;48.914;12.566;2024-03-08T10:25:13;22.70;48.70
37410;DHT22;23275;48.914;12.566;2024-03-08T10:27:39;21.60;51.40
37410;DHT22;23275;48.914;12.566;2024-03-08T10:30:15;21.80;48.30
37410;DHT22;23275;48.914;12.566;2024-03-08T10:32:41;23.20;47.30
37410;DHT22;23275;48.914;12.566;2024-03-08T10:35:10;22.50;46.10
37410;DHT22;23275;48.914;12.566;2024-03-08T10:37:44;22.50;49.30
37410;DHT22;23275;48.914;12.566;2024-03-08T10:40:15;23.30;46.90
37410;DHT22;23275;48.914;12.566;2024-03-08T10:43:03;23.90;45.10
37410;DHT22;23275;48.914;12.566;2024-03-08T10:45:38;22.70;48.10
37410;DHT22;23275;48.914;12.566;2024-03-08T10:48:31;22.30;48.20
37410;DHT22;23275;48.914;12.566;2024-03-08T10:50:59;22.30;46.50
37410;DHT22;23275;48.914;12.566;2024-03-08T10:53:27;22.20;47.30
37410;DHT22;23275;48.914;12.566;2024-03-08T10:55:53;20.60;53.10
37410;DHT22;23275;48.914;12.566;2024-03-08T10:58:24;20.60;51.60
37410;DHT22;23275;48.914;12.566;2024-03-08T11:00:53;21.60;50.80
37410;DHT22;23275;48.914;12.566;2024-03-08T11:06:29;21.00;48.90
37410;DHT22;23275;48.914;12.566;2024-03-08T11:08:55;20.40;51.80
37410;DHT22;23275;48.914;12.566;2024-03-08T11:11:31;19.10;51.60
37410;DHT22;23275;48.914;12.566;2024-03-08T11:13:58;16.60;54.20
37410;DHT22;23275;48.914;12.566;2024-03-08T11:21:36;12.20;68.50
37410;DHT22;23275;48.914;12.566;2024-03-08T11:24:11;11.40;75.80
37410;DHT22;23275;48.914;12.566;2024-03-08T11:26:40;11.10;71.20
37410;DHT22;23275;48.914;12.566;2024-03-08T11:32:03;11.00;77.20
37410;DHT22;23275;48.914;12.566;2024-03-08T11:34:29;10.90;76.20
37410;DHT22;23275;48.914;12.566;2024-03-08T11:36:56;10.70;78.00
37410;DHT22;23275;48.914;12.566;2024-03-08T11:39:22;10.70;72.50
37410;DHT22;23275;48.914;12.566;2024-03-08T11:41:49;10.60;77.00
37410;DHT22;23275;48.914;12.566;2024-03-08T11:44:15;10.70;80.10
37410;DHT22;23275;48.914;12.566;2024-03-08T11:46:42;10.80;76.30
37410;DHT22;23275;48.914;12.566;2024-03-08T11:49:12;10.70;76.10
37410;DHT22;23275;48.914;12.566;2024-03-08T11:51:38;10.60;78.10
37410;DHT22;23275;48.914;12.566;2024-03-08T11:54:04;10.30;78.10
37410;DHT22;23275;48.914;12.566;2024-03-08T11:56:31;10.10;79.60
37410;DHT22;23275;48.914;12.566;2024-03-08T11:58:57;10.20;80.00
37410;DHT22;23275;48.914;12.566;2024-03-08T12:01:24;10.40;79.40
37410;DHT22;23275;48.914;12.566;2024-03-08T12:03:53;10.20;79.40
37410;DHT22;23275;48.914;12.566;2024-03-08T12:06:19;10.00;79.60
37410;DHT22;23275;48.914;12.566;2024-03-08T12:08:46;10.00;80.40
37410;DHT22;23275;48.914;12.566;2024-03-08T12:11:17;9.90;80.30
37410;DHT22;23275;48.914;12.566;2024-03-08T12:13:44;10.10;81.50
37410;DHT22;23275;48.914;12.566;2024-03-08T12:16:19;10.20;79.90
37410;DHT22;23275;48.914;12.566;2024-03-08T12:18:47;10.20;78.30
37410;DHT22;23275;48.914;12.566;2024-03-08T12:21:14;9.80;80.40
37410;DHT22;23275;48.914;12.566;2024-03-08T12:23:44;9.70;81.60
37410;DHT22;23275;48.914;12.566;2024-03-08T12:26:14;9.70;82.40
37410;DHT22;23275;48.914;12.566;2024-03-08T12:28:41;9.70;84.80
37410;DHT22;23275;48.914;12.566;2024-03-08T12:31:08;9.80;84.20
37410;DHT22;23275;48.914;12.566;2024-03-08T12:33:53;9.90;85.20
37410;DHT22;23275;48.914;12.566;2024-03-08T12:36:20;10.00;80.50
37410;DHT22;23275;48.914;12.566;2024-03-08T12:38:49;10.00;84.90
37410;DHT22;23275;48.914;12.566;2024-03-08T12:41:16;10.00;83.10
37410;DHT22;23275;48.914;12.566;2024-03-08T12:43:43;10.00;84.00
37410;DHT22;23275;48.914;12.566;2024-03-08T12:46:14;10.10;83.10
37410;DHT22;23275;48.914;12.566;2024-03-08T12:48:40;10.30;85.00
37410;DHT22;23275;48.914;12.566;2024-03-08T12:51:07;10.40;83.10
37410;DHT22;23275;48.914;12.566;2024-03-08T12:53:33;10.20;79.30
37410;DHT22;23275;48.914;12.566;2024-03-08T12:55:58;10.30;82.90
37410;DHT22;23275;48.914;12.566;2024-03-08T12:58:24;10.40;80.20
37410;DHT22;23275;48.914;12.566;2024-03-08T13:00:51;10.50;79.80
37410;DHT22;23275;48.914;12.566;2024-03-08T13:03:17;10.60;82.70
37410;DHT22;23275;48.914;12.566;2024-03-08T13:05:42;10.60;82.70
37410;DHT22;23275;48.914;12.566;2024-03-08T13:08:08;10.50;80.10
37410;DHT22;23275;48.914;12.566;2024-03-08T13:10:41;10.50;81.90
37410;DHT22;23275;48.914;12.566;2024-03-08T13:13:09;10.50;78.40
37410;DHT22;23275;48.914;12.566;2024-03-08T13:15:35;10.40;76.60
37410;DHT22;23275;48.914;12.566;2024-03-08T13:18:01;10.30;74.50
37410;DHT22;23275;48.914;12.566;2024-03-08T13:20:27;10.30;80.50
37410;DHT22;23275;48.914;12.566;2024-03-08T13:22:53;10.40;76.20
37410;DHT22;23275;48.914;12.566;2024-03-08T13:25:19;10.50;77.50
37410;DHT22;23275;48.914;12.566;2024-03-08T13:27:45;10.50;78.00
37410;DHT22;23275;48.914;12.566;2024-03-08T13:30:12;10.60;79.60
37410;DHT22;23275;48.914;12.566;2024-03-08T13:32:42;10.70;76.30
37410;DHT22;23275;48.914;12.566;2024-03-08T13:35:11;10.60;77.90
37410;DHT22;23275;48.914;12.566;2024-03-08T13:37:41;10.50;80.80
37410;DHT22;23275;48.914;12.566;2024-03-08T13:40:10;10.60;75.00
37410;DHT22;23275;48.914;12.566;2024-03-08T13:42:40;10.60;76.20
37410;DHT22;23275;48.914;12.566;2024-03-08T13:45:09;10.70;76.10
37410;DHT22;23275;48.914;12.566;2024-03-08T13:47:39;10.80;74.80
37410;DHT22;23275;48.914;12.566;2024-03-08T13:50:08;10.80;78.40
37410;DHT22;23275;48.914;12.566;2024-03-08T13:52:37;10.70;78.30
37410;DHT22;23275;48.914;12.566;2024-03-08T13:55:07;10.70;80.30
37410;DHT22;23275;48.914;12.566;2024-03-08T13:57:33;10.70;77.90
37410;DHT22;23275;48.914;12.566;2024-03-08T13:59:59;10.60;78.10
37410;DHT22;23275;48.914;12.566;2024-03-08T14:02:25;10.60;75.80
37410;DHT22;23275;48.914;12.566;2024-03-08T14:04:55;10.50;77.80
37410;DHT22;23275;48.914;12.566;2024-03-08T14:07:21;10.40;80.60
37410;DHT22;23275;48.914;12.566;2024-03-08T14:09:46;10.40;75.90
37410;DHT22;23275;48.914;12.566;2024-03-08T14:12:12;10.30;75.00
37410;DHT22;23275;48.914;12.566;2024-03-08T14:14:40;10.30;76.00
37410;DHT22;23275;48.914;12.566;2024-03-08T14:17:07;10.40;76.70
37410;DHT22;23275;48.914;12.566;2024-03-08T14:19:35;10.40;80.00
37410;DHT22;23275;48.914;12.566;2024-03-08T14:22:00;10.50;76.80
37410;DHT22;23275;48.914;12.566;2024-03-08T14:24:30;10.50;77.50
37410;DHT22;23275;48.914;12.566;2024-03-08T14:26:56;10.50;78.90
37410;DHT22;23275;48.914;12.566;2024-03-08T14:29:26;10.50;76.70
37410;DHT22;23275;48.914;12.566;2024-03-08T14:31:55;10.60;77.00
37410;DHT22;23275;48.914;12.566;2024-03-08T14:34:22;10.50;76.80
37410;DHT22;23275;48.914;12.566;2024-03-08T14:36:51;10.50;76.20
37410;DHT22;23275;48.914;12.566;2024-03-08T14:39:17;10.50;75.40
37410;DHT22;23275;48.914;12.566;2024-03-08T14:41:49;10.50;77.20
37410;DHT22;23275;48.914;12.566;2024-03-08T14:44:22;10.60;79.20
37410;DHT22;23275;48.914;12.566;2024-03-08T14:46:55;10.50;77.20
37410;DHT22;23275;48.914;12.566;2024-03-08T14:49:22;10.50;78.80
37410;DHT22;23275;48.914;12.566;2024-03-08T14:51:47;10.50;82.30
37410;DHT22;23275;48.914;12.566;2024-03-08T14:54:13;10.50;77.80
37410;DHT22;23275;48.914;12.566;2024-03-08T14:56:39;10.50;82.60
37410;DHT22;23275;48.914;12.566;2024-03-08T14:59:08;10.50;77.70
37410;DHT22;23275;48.914;12.566;2024-03-08T15:01:35;10.60;77.60
37410;DHT22;23275;48.914;12.566;2024-03-08T15:04:01;10.50;80.00
37410;DHT22;23275;48.914;12.566;2024-03-08T15:06:43;10.50;78.80
37410;DHT22;23275;48.914;12.566;2024-03-08T15:09:08;10.50;79.10
37410;DHT22;23275;48.914;12.566;2024-03-08T15:11:40;10.40;76.50
37410;DHT22;23275;48.914;12.566;2024-03-08T15:14:07;10.40;82.60
37410;DHT22;23275;48.914;12.566;2024-03-08T15:16:39;10.30;84.60
37410;DHT22;23275;48.914;12.566;2024-03-08T15:19:07;10.30;77.30
37410;DHT22;23275;48.914;12.566;2024-03-08T15:21:33;10.20;78.90
37410;DHT22;23275;48.914;12.566;2024-03-08T15:24:00;10.20;80.30
37410;DHT22;23275;48.914;12.566;2024-03-08T15:26:28;10.20;80.50
37410;DHT22;23275;48.914;12.566;2024-03-08T15:28:55;10.20;79.70
37410;DHT22;23275;48.914;12.566;2024-03-08T15:31:21;10.20;82.00
37410;DHT22;23275;48.914;12.566;2024-03-08T15:33:50;10.20;79.00